Time;durP1;ratioP1;P1;durP2;ratioP2;P2;SDS_P1;SDS_P2;PMS_P1;PMS_P2;Temp;Humidity;BMP_temperature;BMP_pressure;BME280_temperature;BME280_humidity;BME280_pressure;Samples;Min_cycle;Max_cycle;Signal;HPM_P1;HPM_P2
2023/10/29 00:00:28;;;;;;;3.70;0.83;;;10.00;95.70;;;;;;2093668;28;20239;-68
2023/10/29 00:01:29;;;;;;;2.17;1.00;;;10.00;95.70;;;;;;2085862;28;20235;-68
2023/10/29 00:02:30;;;;;;;1.50;0.97;;;10.00;95.40;;;;;;2089140;28;20279;-68
2023/10/29 00:03:30;;;;;;;1.37;0.70;;;10.00;95.50;;;;;;2094416;28;20230;-68
2023/10/29 00:04:35;;;;;;;1.90;1.10;;;10.10;95.70;;;;;;2093959;28;20246;-68
2023/10/29 00:05:36;;;;;;;2.22;1.10;;;10.10;95.50;;;;;;2090195;28;20739;-68
2023/10/29 00:06:37;;;;;;;1.47;0.90;;;10.10;95.40;;;;;;2090350;28;20299;-68
2023/10/29 00:07:37;;;;;;;2.50;1.00;;;10.10;95.50;;;;;;2091928;28;20487;-68
2023/10/29 00:08:38;;;;;;;1.57;1.00;;;10.10;95.30;;;;;;2090321;28;20237;-68
2023/10/29 00:09:39;;;;;;;2.23;1.10;;;10.10;95.40;;;;;;2090262;28;20288;-68
2023/10/29 00:10:40;;;;;;;3.10;0.98;;;10.10;95.20;;;;;;2089719;28;20220;-68
2023/10/29 00:11:41;;;;;;;2.20;1.10;;;10.10;95.20;;;;;;2092271;28;20227;-68
2023/10/29 00:12:41;;;;;;;2.23;0.87;;;10.10;95.10;;;;;;2080118;28;20250;-68
2023/10/29 00:13:43;;;;;;;1.60;0.90;;;10.10;95.20;;;;;;2091839;28;20223;-68
2023/10/29 00:14:43;;;;;;;1.35;0.90;;;10.20;95.20;;;;;;2095612;28;20631;-69
2023/10/29 00:15:44;;;;;;;2.47;0.90;;;10.10;95.40;;;;;;2092565;28;20250;-68
2023/10/29 00:16:44;;;;;;;4.23;1.10;;;10.20;95.40;;;;;;2090351;28;20247;-68
2023/10/29 00:17:45;;;;;;;2.03;0.90;;;10.20;95.40;;;;;;2089832;28;20228;-68
2023/10/29 00:18:45;;;;;;;1.67;0.90;;;10.20;95.30;;;;;;2090144;28;20729;-68
2023/10/29 00:19:46;;;;;;;1.33;1.10;;;10.20;95.30;;;;;;2086396;28;20244;-68
2023/10/29 00:20:47;;;;;;;1.47;1.00;;;10.20;95.30;;;;;;2092575;28;20292;-68
2023/10/29 00:21:47;;;;;;;2.47;1.07;;;10.10;95.70;;;;;;2093239;28;20669;-68
2023/10/29 00:22:48;;;;;;;1.83;0.77;;;10.00;96.10;;;;;;2092223;28;20694;-68
2023/10/29 00:23:48;;;;;;;1.77;0.90;;;9.90;96.70;;;;;;2090809;28;20295;-68
2023/10/29 00:24:49;;;;;;;4.23;1.10;;;9.80;97.10;;;;;;2089665;28;20696;-68
2023/10/29 00:25:50;;;;;;;1.20;1.00;;;9.80;97.80;;;;;;2089644;28;20258;-68
2023/10/29 00:26:51;;;;;;;2.08;1.05;;;9.80;98.20;;;;;;2089253;28;21041;-68
2023/10/29 00:27:51;;;;;;;1.80;0.90;;;9.70;98.50;;;;;;2089882;28;20220;-68
2023/10/29 00:28:52;;;;;;;1.20;0.97;;;9.60;98.70;;;;;;2093150;28;20609;-68
2023/10/29 00:29:53;;;;;;;2.10;1.10;;;9.50;99.20;;;;;;2089446;28;20242;-69
2023/10/29 00:30:55;;;;;;;2.97;0.90;;;9.40;99.60;;;;;;2091964;28;20219;-69
2023/10/29 00:31:55;;;;;;;2.22;0.90;;;9.30;99.50;;;;;;2088782;28;20689;-68
2023/10/29 00:32:56;;;;;;;1.50;0.87;;;9.30;99.40;;;;;;2089350;28;20224;-69
2023/10/29 00:33:56;;;;;;;1.37;1.13;;;9.20;99.50;;;;;;2089865;28;20254;-68
2023/10/29 00:34:57;;;;;;;3.07;1.10;;;9.20;99.60;;;;;;2089090;28;20243;-68
2023/10/29 00:35:57;;;;;;;1.33;0.80;;;9.20;99.20;;;;;;2089834;28;20376;-69
2023/10/29 00:36:58;;;;;;;1.63;1.10;;;9.30;98.80;;;;;;2089665;28;20693;-69
2023/10/29 00:37:59;;;;;;;3.73;1.30;;;9.30;98.40;;;;;;2091513;28;20227;-69
2023/10/29 00:39:00;;;;;;;1.07;0.90;;;9.30;98.30;;;;;;2089612;28;20259;-68
2023/10/29 00:40:00;;;;;;;2.37;0.87;;;9.30;98.10;;;;;;2089832;28;20705;-69
2023/10/29 00:41:01;;;;;;;1.13;0.80;;;9.30;97.80;;;;;;2088747;28;20282;-69
2023/10/29 00:42:02;;;;;;;1.43;1.00;;;9.30;97.70;;;;;;2094314;28;20195;-69
2023/10/29 00:43:03;;;;;;;1.37;0.90;;;9.30;97.80;;;;;;2096184;28;20579;-69
2023/10/29 00:44:04;;;;;;;1.13;0.90;;;9.40;97.50;;;;;;2090846;28;20211;-69
2023/10/29 00:45:05;;;;;;;2.07;1.20;;;9.40;97.40;;;;;;2089207;28;20195;-69
2023/10/29 00:46:07;;;;;;;1.70;0.90;;;9.40;97.30;;;;;;2089542;28;20226;-69
2023/10/29 00:47:08;;;;;;;3.00;1.15;;;9.40;97.40;;;;;;2090225;28;20436;-69
2023/10/29 00:48:10;;;;;;;3.17;0.90;;;9.40;97.20;;;;;;2090893;28;20180;-68
2023/10/29 00:49:10;;;;;;;2.47;1.00;;;9.50;97.10;;;;;;2089317;28;20211;-69
2023/10/29 00:50:11;;;;;;;1.50;0.80;;;9.40;97.30;;;;;;2089540;28;20196;-69
2023/10/29 00:51:13;;;;;;;2.33;0.80;;;9.40;97.40;;;;;;2080194;28;20230;-68
2023/10/29 00:52:13;;;;;;;3.28;1.35;;;9.40;97.70;;;;;;2088174;28;20285;-69
2023/10/29 00:53:14;;;;;;;1.23;0.90;;;9.40;98.00;;;;;;2089258;28;20196;-69
2023/10/29 00:54:15;;;;;;;1.58;0.80;;;9.30;98.40;;;;;;2093910;28;20204;-68
2023/10/29 00:55:17;;;;;;;1.70;1.00;;;9.20;98.20;;;;;;2095277;28;20196;-68
2023/10/29 00:56:18;;;;;;;1.88;1.10;;;9.20;98.30;;;;;;2089790;28;20251;-69
2023/10/29 00:57:19;;;;;;;1.10;1.00;;;9.20;98.30;;;;;;2090809;28;20629;-69
2023/10/29 00:58:23;;;;;;;2.25;1.00;;;9.20;98.30;;;;;;2096582;28;20665;-68
2023/10/29 00:59:26;;;;;;;1.45;0.80;;;9.20;98.00;;;;;;2089277;28;20231;-69
2023/10/29 01:00:27;;;;;;;4.00;1.00;;;9.20;98.00;;;;;;2090085;28;20581;-69
2023/10/29 01:01:28;;;;;;;1.73;1.00;;;9.20;97.90;;;;;;2093035;28;20264;-68
2023/10/29 01:02:31;;;;;;;1.10;0.93;;;9.30;97.60;;;;;;2095143;28;20307;-68
2023/10/29 01:03:32;;;;;;;1.67;1.00;;;9.30;97.50;;;;;;2088572;28;20235;-68
2023/10/29 01:04:33;;;;;;;2.00;1.03;;;9.40;97.30;;;;;;2088751;28;20231;-69
2023/10/29 01:05:34;;;;;;;1.27;1.08;;;9.40;97.20;;;;;;2089253;28;20231;-68
2023/10/29 01:06:38;;;;;;;1.48;1.13;;;9.40;96.90;;;;;;2089075;28;20253;-68
2023/10/29 01:07:39;;;;;;;0.80;0.80;;;9.40;97.10;;;;;;2088746;28;20330;-69
2023/10/29 01:08:40;;;;;;;1.00;0.80;;;9.40;97.10;;;;;;2090504;28;20760;-69
2023/10/29 01:09:42;;;;;;;1.15;0.95;;;9.50;97.30;;;;;;2092230;28;20271;-69
2023/10/29 01:10:42;;;;;;;1.00;0.90;;;9.40;97.20;;;;;;2089295;28;20339;-68
2023/10/29 01:11:43;;;;;;;2.10;1.20;;;9.40;97.20;;;;;;2089982;28;20239;-68
2023/10/29 01:12:45;;;;;;;1.40;0.80;;;9.40;97.20;;;;;;2089516;28;20258;-68
2023/10/29 01:13:45;;;;;;;0.80;0.80;;;9.40;97.50;;;;;;2092839;28;20237;-69
2023/10/29 01:14:46;;;;;;;1.77;1.00;;;9.40;97.40;;;;;;2095483;28;20220;-68
2023/10/29 01:15:46;;;;;;;1.60;1.03;;;9.40;97.40;;;;;;2092125;28;20314;-68
2023/10/29 01:16:48;;;;;;;2.87;1.10;;;9.40;97.30;;;;;;2087456;28;20932;-68
2023/10/29 01:17:49;;;;;;;1.58;0.98;;;9.40;97.10;;;;;;2088676;28;20227;-69
2023/10/29 01:18:50;;;;;;;2.40;1.20;;;9.50;97.00;;;;;;2093172;28;20242;-69
2023/10/29 01:19:50;;;;;;;2.27;1.10;;;9.50;96.70;;;;;;2091682;28;20254;-69
2023/10/29 01:20:51;;;;;;;2.17;0.93;;;9.40;96.90;;;;;;2088629;28;20248;-70
2023/10/29 01:21:51;;;;;;;2.93;1.00;;;9.40;97.00;;;;;;2088820;28;20353;-69
2023/10/29 01:22:52;;;;;;;2.10;1.00;;;9.40;97.10;;;;;;2089283;28;20721;-67
2023/10/29 01:23:53;;;;;;;1.30;0.90;;;9.40;97.10;;;;;;2089181;28;20449;-68
2023/10/29 01:24:53;;;;;;;1.47;0.90;;;9.40;97.20;;;;;;2088223;28;20619;-69
2023/10/29 01:25:57;;;;;;;1.30;1.00;;;9.40;97.10;;;;;;2088084;28;20232;-69
2023/10/29 01:26:58;;;;;;;2.80;1.00;;;9.40;97.10;;;;;;2092527;28;20231;-69
2023/10/29 01:27:59;;;;;;;2.50;0.93;;;9.40;97.10;;;;;;2084692;28;20246;-69
2023/10/29 01:29:00;;;;;;;1.70;1.00;;;9.50;97.10;;;;;;2093209;28;20724;-68
2023/10/29 01:30:01;;;;;;;1.00;0.90;;;9.40;97.00;;;;;;2089268;28;20223;-70
2023/10/29 01:31:01;;;;;;;1.00;0.87;;;9.40;97.10;;;;;;2089029;28;20654;-70
2023/10/29 01:32:02;;;;;;;2.10;1.00;;;9.30;97.70;;;;;;2088812;28;20195;-69
2023/10/29 01:33:03;;;;;;;3.07;1.00;;;9.30;97.30;;;;;;2088430;28;20180;-69
2023/10/29 01:34:03;;;;;;;1.93;1.40;;;9.30;97.20;;;;;;2082906;28;20183;-69
2023/10/29 01:35:04;;;;;;;4.00;0.90;;;9.40;97.20;;;;;;2091342;28;20843;-69
2023/10/29 01:36:06;;;;;;;2.60;0.90;;;9.40;97.10;;;;;;2095147;28;20198;-69
2023/10/29 01:37:06;;;;;;;1.45;0.93;;;9.40;97.00;;;;;;2095875;28;20186;-69
2023/10/29 01:38:07;;;;;;;1.10;1.00;;;9.40;96.90;;;;;;2091435;28;20274;-69
2023/10/29 01:39:08;;;;;;;1.40;0.97;;;9.40;96.70;;;;;;2086971;28;20224;-69
2023/10/29 01:40:09;;;;;;;2.47;1.00;;;9.40;97.50;;;;;;2089143;28;20282;-67
2023/10/29 01:41:09;;;;;;;2.53;0.98;;;9.40;96.90;;;;;;2095753;28;20194;-68
2023/10/29 01:42:10;;;;;;;4.03;1.00;;;9.40;96.80;;;;;;2087984;28;20180;-68
2023/10/29 01:43:11;;;;;;;1.77;1.03;;;9.40;96.80;;;;;;2091693;28;20685;-68
2023/10/29 01:44:11;;;;;;;2.07;0.90;;;9.40;96.60;;;;;;2090642;28;20547;-68
2023/10/29 01:45:16;;;;;;;1.83;1.03;;;9.40;96.90;;;;;;2088501;28;20189;-68
2023/10/29 01:46:17;;;;;;;1.20;0.90;;;9.40;96.90;;;;;;2088953;28;20262;-68
2023/10/29 01:47:18;;;;;;;1.53;1.03;;;9.40;97.00;;;;;;2087706;28;20185;-68
2023/10/29 01:48:19;;;;;;;1.27;1.00;;;9.40;96.90;;;;;;2080550;28;20181;-68
2023/10/29 01:49:20;;;;;;;2.20;1.02;;;9.50;96.80;;;;;;2091222;28;20231;-68
2023/10/29 01:50:20;;;;;;;2.70;1.00;;;9.50;96.60;;;;;;2095025;28;20225;-68
2023/10/29 01:51:21;;;;;;;1.77;0.90;;;9.40;96.80;;;;;;2086925;28;20318;-68
2023/10/29 01:52:21;;;;;;;1.10;0.80;;;9.40;96.80;;;;;;2089848;28;20808;-68
2023/10/29 01:53:22;;;;;;;3.70;1.20;;;9.40;97.10;;;;;;2090966;28;20235;-68
2023/10/29 01:54:22;;;;;;;1.63;1.20;;;9.30;97.40;;;;;;2095181;28;20231;-68
2023/10/29 01:55:23;;;;;;;2.10;1.00;;;9.30;97.20;;;;;;2086919;28;20321;-68
2023/10/29 01:56:24;;;;;;;2.00;1.07;;;9.30;97.00;;;;;;2087679;28;20235;-68
2023/10/29 01:57:24;;;;;;;1.00;0.90;;;9.30;97.20;;;;;;2095487;28;20239;-68
2023/10/29 01:58:25;;;;;;;2.00;0.90;;;9.40;97.10;;;;;;2090618;28;20224;-68
2023/10/29 01:59:25;;;;;;;2.23;1.00;;;9.40;97.00;;;;;;2090544;28;20232;-68
2023/10/29 02:00:26;;;;;;;3.43;1.10;;;9.30;97.30;;;;;;2090267;28;20294;-69
2023/10/29 02:01:27;;;;;;;2.10;1.00;;;9.20;97.40;;;;;;2093837;28;20227;-68
2023/10/29 02:02:27;;;;;;;2.33;0.90;;;9.30;97.30;;;;;;2086495;28;20260;-68
2023/10/29 02:03:28;;;;;;;1.73;0.97;;;9.30;97.40;;;;;;2096316;28;20223;-68
2023/10/29 02:04:30;;;;;;;1.87;1.00;;;9.30;97.20;;;;;;2090308;28;20239;-68
2023/10/29 02:05:30;;;;;;;2.75;1.00;;;9.20;97.40;;;;;;2083998;28;20341;-67
2023/10/29 02:06:37;;;;;;;1.00;0.83;;;9.20;97.50;;;;;;2085148;28;20236;-68
2023/10/29 02:07:38;;;;;;;2.33;1.00;;;9.20;97.50;;;;;;2086408;28;20223;-68
2023/10/29 02:08:39;;;;;;;1.20;0.90;;;9.20;97.40;;;;;;2096025;28;20231;-68
2023/10/29 02:09:39;;;;;;;1.13;0.90;;;9.30;97.40;;;;;;2086494;28;20235;-68
2023/10/29 02:10:40;;;;;;;1.97;1.10;;;9.20;97.20;;;;;;2093836;28;20241;-68
2023/10/29 02:11:40;;;;;;;1.53;0.90;;;9.20;97.30;;;;;;2088341;28;20228;-68
2023/10/29 02:12:41;;;;;;;2.90;1.03;;;9.20;97.20;;;;;;2088295;28;20228;-68
2023/10/29 02:13:42;;;;;;;2.40;0.90;;;9.20;97.30;;;;;;2094239;28;20228;-68
2023/10/29 02:14:42;;;;;;;1.47;1.00;;;9.20;97.30;;;;;;2090463;28;20228;-68
2023/10/29 02:15:43;;;;;;;2.87;1.10;;;9.30;97.40;;;;;;2091282;28;20325;-68
2023/10/29 02:16:43;;;;;;;2.60;1.00;;;9.20;96.90;;;;;;2086875;28;20260;-68
2023/10/29 02:17:44;;;;;;;1.57;1.00;;;9.30;96.80;;;;;;2093937;28;20823;-68
2023/10/29 02:18:45;;;;;;;1.90;1.17;;;9.30;97.00;;;;;;2094236;28;20242;-68
2023/10/29 02:19:45;;;;;;;1.80;0.90;;;9.30;96.90;;;;;;2091734;28;20242;-68
2023/10/29 02:20:46;;;;;;;3.23;1.10;;;9.30;96.80;;;;;;2087387;28;20231;-68
2023/10/29 02:21:46;;;;;;;1.37;1.00;;;9.20;96.80;;;;;;2094938;28;20300;-68
2023/10/29 02:22:47;;;;;;;4.50;1.10;;;9.30;96.70;;;;;;2095812;28;20227;-68
2023/10/29 02:23:48;;;;;;;1.70;1.00;;;9.30;96.30;;;;;;2088978;28;20985;-68
2023/10/29 02:24:48;;;;;;;2.00;0.90;;;9.30;96.50;;;;;;2090073;28;20231;-68
2023/10/29 02:25:49;;;;;;;1.40;1.00;;;9.30;96.60;;;;;;2087561;28;20228;-68
2023/10/29 02:26:49;;;;;;;2.77;1.20;;;9.30;96.10;;;;;;2092355;28;20231;-68
2023/10/29 02:27:50;;;;;;;1.70;0.90;;;9.30;96.20;;;;;;2089804;28;20295;-67
2023/10/29 02:28:51;;;;;;;2.27;1.00;;;9.30;96.10;;;;;;2081724;28;20235;-68
2023/10/29 02:29:52;;;;;;;2.03;1.00;;;9.30;96.10;;;;;;2081401;28;20224;-68
2023/10/29 02:30:53;;;;;;;1.48;0.90;;;9.30;96.10;;;;;;2092894;28;20238;-68
2023/10/29 02:31:53;;;;;;;1.50;1.10;;;9.30;96.10;;;;;;2090185;28;20255;-67
2023/10/29 02:32:54;;;;;;;1.33;0.90;;;9.30;96.20;;;;;;2088505;28;20321;-68
2023/10/29 02:33:54;;;;;;;1.20;0.90;;;9.30;96.20;;;;;;2090201;28;20232;-68
2023/10/29 02:34:55;;;;;;;1.50;1.00;;;9.30;96.00;;;;;;2088959;28;20281;-68
2023/10/29 02:35:57;;;;;;;0.90;0.90;;;9.40;95.80;;;;;;2092486;28;20251;-68
2023/10/29 02:36:58;;;;;;;1.58;0.80;;;9.30;95.80;;;;;;2095859;28;20712;-68
2023/10/29 02:37:58;;;;;;;2.80;0.80;;;9.30;95.80;;;;;;2095419;28;20227;-68
2023/10/29 02:38:59;;;;;;;1.27;1.00;;;9.30;96.00;;;;;;2095932;28;20232;-68
2023/10/29 02:39:59;;;;;;;1.97;0.80;;;9.30;96.20;;;;;;2090887;28;20239;-68
2023/10/29 02:41:00;;;;;;;2.20;0.97;;;9.30;96.00;;;;;;2088445;28;20224;-68
2023/10/29 02:42:01;;;;;;;1.77;0.93;;;9.40;95.90;;;;;;2090445;28;20216;-69
2023/10/29 02:43:03;;;;;;;2.40;0.80;;;9.60;95.40;;;;;;2091949;28;20179;-69
2023/10/29 02:44:03;;;;;;;0.80;0.80;;;9.60;94.80;;;;;;2094654;28;20179;-68
2023/10/29 02:45:04;;;;;;;2.13;1.00;;;9.60;94.90;;;;;;2090820;28;20195;-68
2023/10/29 02:46:05;;;;;;;1.67;1.00;;;9.60;95.20;;;;;;2095321;28;20187;-68
2023/10/29 02:47:06;;;;;;;2.37;0.90;;;9.60;95.30;;;;;;2095684;28;20634;-69
2023/10/29 02:48:07;;;;;;;2.00;1.00;;;9.60;95.30;;;;;;2090355;28;20176;-68
2023/10/29 02:49:07;;;;;;;2.67;0.90;;;9.60;95.00;;;;;;2083312;28;20504;-68
2023/10/29 02:50:08;;;;;;;1.73;1.03;;;9.70;94.70;;;;;;2093232;28;20219;-68
2023/10/29 02:51:12;;;;;;;2.03;1.10;;;9.70;94.40;;;;;;2093596;28;20207;-68
2023/10/29 02:52:13;;;;;;;1.85;0.95;;;9.70;94.40;;;;;;2087544;28;20222;-68
2023/10/29 02:53:14;;;;;;;1.63;0.90;;;9.70;94.80;;;;;;2088211;28;20278;-68
2023/10/29 02:54:14;;;;;;;3.00;0.90;;;9.60;95.30;;;;;;2090633;28;20207;-68
2023/10/29 02:55:15;;;;;;;1.40;0.93;;;9.70;95.50;;;;;;2090128;28;20180;-68
2023/10/29 02:56:16;;;;;;;0.70;0.70;;;9.60;95.40;;;;;;2089953;28;20191;-68
2023/10/29 02:57:16;;;;;;;1.13;0.93;;;9.70;94.80;;;;;;2086086;28;20716;-68
2023/10/29 02:58:17;;;;;;;2.53;0.90;;;9.60;95.00;;;;;;2096944;28;20183;-68
2023/10/29 02:59:18;;;;;;;1.23;0.83;;;9.50;95.60;;;;;;2095896;28;20330;-68
2023/10/29 03:00:18;;;;;;;1.00;0.90;;;9.60;96.10;;;;;;2092601;28;20184;-68
2023/10/29 03:01:19;;;;;;;2.07;0.90;;;9.60;96.10;;;;;;2091481;28;20190;-68
2023/10/29 03:02:20;;;;;;;2.47;0.90;;;9.60;95.90;;;;;;2089715;28;20180;-68
2023/10/29 03:03:20;;;;;;;1.30;0.90;;;9.70;95.40;;;;;;2089135;28;22126;-69
2023/10/29 03:04:21;;;;;;;2.03;0.97;;;9.70;95.60;;;;;;2095071;28;20554;-68
2023/10/29 03:05:22;;;;;;;1.10;0.70;;;9.60;95.10;;;;;;2083754;28;20258;-68
2023/10/29 03:06:22;;;;;;;1.00;0.83;;;9.60;95.10;;;;;;2093310;28;20232;-68
2023/10/29 03:07:23;;;;;;;1.23;0.70;;;9.50;95.50;;;;;;2091950;28;20258;-68
2023/10/29 03:08:24;;;;;;;1.10;0.90;;;9.50;95.20;;;;;;2085779;28;20230;-68
2023/10/29 03:09:25;;;;;;;1.90;0.85;;;9.50;95.60;;;;;;2094271;28;20227;-68
2023/10/29 03:10:26;;;;;;;3.63;1.10;;;9.40;95.30;;;;;;2090991;28;20745;-68
2023/10/29 03:11:26;;;;;;;1.25;0.90;;;9.30;95.70;;;;;;2088685;28;20366;-68
2023/10/29 03:12:27;;;;;;;1.27;0.90;;;9.30;95.90;;;;;;2089271;28;20721;-68
2023/10/29 03:13:28;;;;;;;3.43;1.60;;;9.20;96.00;;;;;;2089243;28;20311;-68
2023/10/29 03:14:28;;;;;;;2.50;1.03;;;9.30;95.40;;;;;;2089925;28;20220;-68
2023/10/29 03:15:29;;;;;;;1.70;0.90;;;9.30;96.40;;;;;;2088656;28;20226;-68
2023/10/29 03:16:29;;;;;;;1.10;0.80;;;9.30;96.10;;;;;;2085962;28;20576;-67
2023/10/29 03:17:30;;;;;;;2.03;1.27;;;9.30;96.00;;;;;;2095605;28;20223;-68
2023/10/29 03:18:30;;;;;;;4.90;0.90;;;9.30;96.10;;;;;;2096102;28;20310;-68
2023/10/29 03:19:31;;;;;;;0.93;0.70;;;9.30;96.10;;;;;;2095918;28;20286;-68
2023/10/29 03:20:32;;;;;;;2.43;1.10;;;9.30;95.60;;;;;;2089502;28;20254;-68
2023/10/29 03:21:32;;;;;;;1.70;0.87;;;9.40;95.70;;;;;;2089909;28;20227;-68
2023/10/29 03:22:33;;;;;;;1.47;0.80;;;9.30;95.80;;;;;;2092522;28;20312;-69
2023/10/29 03:23:34;;;;;;;0.70;0.70;;;9.30;96.10;;;;;;2094504;28;20234;-69
2023/10/29 03:24:34;;;;;;;1.97;0.93;;;9.20;96.40;;;;;;2095165;28;20319;-69
2023/10/29 03:25:35;;;;;;;1.60;0.80;;;9.20;95.70;;;;;;2094079;28;20250;-68
2023/10/29 03:26:35;;;;;;;1.20;0.90;;;9.20;95.30;;;;;;2087921;28;20234;-69
2023/10/29 03:27:37;;;;;;;1.67;0.87;;;9.20;95.30;;;;;;2093031;28;20235;-68
2023/10/29 03:28:39;;;;;;;1.30;1.00;;;9.20;95.30;;;;;;2092249;28;20227;-68
2023/10/29 03:29:40;;;;;;;1.17;0.90;;;9.20;95.40;;;;;;2092131;28;20227;-68
2023/10/29 03:30:40;;;;;;;2.17;1.10;;;9.20;95.40;;;;;;2093093;28;20703;-68
2023/10/29 03:31:41;;;;;;;2.23;1.07;;;9.10;95.80;;;;;;2091781;28;20289;-68
2023/10/29 03:32:42;;;;;;;1.03;0.80;;;9.10;95.80;;;;;;2093705;28;20262;-69
2023/10/29 03:33:44;;;;;;;1.43;0.90;;;9.10;96.00;;;;;;2088412;28;20240;-68
2023/10/29 03:34:45;;;;;;;2.47;1.00;;;9.10;96.60;;;;;;2092842;28;20223;-68
2023/10/29 03:35:45;;;;;;;1.40;0.80;;;9.10;96.20;;;;;;2090646;28;20346;-68
2023/10/29 03:36:46;;;;;;;1.33;0.90;;;9.10;96.10;;;;;;2086783;28;20227;-68
2023/10/29 03:37:47;;;;;;;3.27;1.20;;;9.10;96.20;;;;;;2083850;28;20443;-68
2023/10/29 03:38:47;;;;;;;1.87;0.97;;;9.00;96.40;;;;;;2088601;28;20764;-68
2023/10/29 03:39:48;;;;;;;1.30;0.80;;;9.00;96.60;;;;;;2090733;28;20336;-69
2023/10/29 03:40:48;;;;;;;2.27;1.00;;;9.00;96.60;;;;;;2090964;28;20239;-68
2023/10/29 03:41:49;;;;;;;1.90;0.90;;;9.00;96.70;;;;;;2094310;28;20311;-69
2023/10/29 03:42:49;;;;;;;2.47;1.00;;;9.00;96.80;;;;;;2091308;28;20625;-68
2023/10/29 03:43:50;;;;;;;2.70;1.67;;;8.90;97.30;;;;;;2091124;28;20215;-68
2023/10/29 03:44:50;;;;;;;2.17;1.00;;;8.90;97.30;;;;;;2089022;28;20239;-68
2023/10/29 03:45:51;;;;;;;1.43;0.90;;;8.90;97.10;;;;;;2089410;28;20232;-68
2023/10/29 03:46:52;;;;;;;3.07;1.20;;;8.90;97.70;;;;;;2091972;28;20240;-68
2023/10/29 03:47:53;;;;;;;1.00;0.90;;;8.90;97.00;;;;;;2089156;28;20220;-68
2023/10/29 03:48:53;;;;;;;2.13;1.10;;;8.80;97.20;;;;;;2092896;28;20228;-68
2023/10/29 03:49:55;;;;;;;1.23;1.00;;;8.80;97.60;;;;;;2091090;28;20276;-68
2023/10/29 03:50:55;;;;;;;1.95;1.00;;;8.80;97.50;;;;;;2093115;28;20232;-68
2023/10/29 03:51:56;;;;;;;1.87;1.17;;;8.90;97.40;;;;;;2094113;28;20692;-68
2023/10/29 03:52:56;;;;;;;5.07;4.00;;;8.80;97.30;;;;;;2093982;28;20234;-68
2023/10/29 03:53:57;;;;;;;4.03;2.43;;;8.90;97.30;;;;;;2091706;28;20236;-68
2023/10/29 03:54:58;;;;;;;1.87;1.20;;;8.80;97.50;;;;;;2093296;28;20686;-69
2023/10/29 03:56:00;;;;;;;1.00;0.90;;;8.80;98.30;;;;;;2089234;28;20335;-68
2023/10/29 03:57:01;;;;;;;2.80;1.00;;;8.80;97.50;;;;;;2092536;28;20284;-70
2023/10/29 03:58:02;;;;;;;4.00;1.23;;;8.90;97.30;;;;;;2095915;28;20215;-68
2023/10/29 03:59:03;;;;;;;2.35;1.00;;;8.90;97.40;;;;;;2090107;28;20212;-68
2023/10/29 04:00:04;;;;;;;1.37;1.00;;;8.90;97.40;;;;;;2093958;28;20260;-68
2023/10/29 04:01:04;;;;;;;1.05;0.90;;;8.90;97.30;;;;;;2096972;28;20246;-69
2023/10/29 04:02:05;;;;;;;1.70;1.00;;;8.90;97.30;;;;;;2098450;28;20188;-69
2023/10/29 04:03:06;;;;;;;2.10;0.90;;;8.90;97.30;;;;;;2097778;28;20187;-68
2023/10/29 04:04:08;;;;;;;1.37;0.90;;;8.90;97.30;;;;;;2097514;28;20180;-68
2023/10/29 04:05:08;;;;;;;1.15;1.00;;;8.90;97.30;;;;;;2080428;28;20214;-68
2023/10/29 04:06:12;;;;;;;2.10;0.90;;;8.90;97.40;;;;;;2087525;28;20567;-68
2023/10/29 04:07:13;;;;;;;1.20;1.00;;;8.90;97.30;;;;;;2089434;28;20257;-68
2023/10/29 04:08:15;;;;;;;1.58;1.00;;;8.90;97.30;;;;;;2089569;28;20643;-68
2023/10/29 04:09:16;;;;;;;2.15;0.98;;;8.90;97.20;;;;;;2089205;28;20284;-68
2023/10/29 04:10:17;;;;;;;3.92;1.10;;;8.90;97.30;;;;;;2089442;28;20677;-68
2023/10/29 04:11:18;;;;;;;2.03;1.10;;;8.90;97.10;;;;;;2088873;28;20192;-68
2023/10/29 04:12:18;;;;;;;2.50;1.03;;;8.90;97.30;;;;;;2088726;28;20235;-68
2023/10/29 04:13:19;;;;;;;1.30;1.00;;;8.80;97.40;;;;;;2087047;28;20262;-68
2023/10/29 04:14:20;;;;;;;2.53;1.10;;;8.80;97.50;;;;;;2081196;28;20220;-68
2023/10/29 04:15:20;;;;;;;1.00;0.90;;;8.80;98.30;;;;;;2094831;28;22408;-68
2023/10/29 04:16:21;;;;;;;2.60;1.10;;;8.80;98.20;;;;;;2091582;28;20840;-68
2023/10/29 04:17:21;;;;;;;1.83;1.00;;;8.80;98.10;;;;;;2089532;28;20290;-68
2023/10/29 04:18:27;;;;;;;2.27;1.20;;;8.70;98.30;;;;;;2089497;28;20915;-68
2023/10/29 04:19:28;;;;;;;1.85;1.00;;;8.60;98.30;;;;;;2093054;28;20323;-69
2023/10/29 04:20:28;;;;;;;2.53;1.00;;;8.50;98.80;;;;;;2090437;28;20227;-68
2023/10/29 04:21:29;;;;;;;2.47;1.00;;;8.40;99.90;;;;;;2092428;28;20227;-68
2023/10/29 04:22:29;;;;;;;1.80;0.90;;;8.40;99.90;;;;;;2090409;28;20242;-68
2023/10/29 04:23:30;;;;;;;3.07;1.10;;;8.30;99.90;;;;;;2090359;28;20236;-68
2023/10/29 04:24:31;;;;;;;1.00;0.90;;;8.20;99.90;;;;;;2094490;28;20231;-68
2023/10/29 04:25:31;;;;;;;1.17;0.90;;;8.10;99.90;;;;;;2085323;28;20260;-68
2023/10/29 04:26:33;;;;;;;2.53;1.10;;;8.00;99.90;;;;;;2086216;28;20266;-68
2023/10/29 04:27:33;;;;;;;1.13;0.90;;;8.10;99.90;;;;;;2082357;28;20599;-68
2023/10/29 04:28:34;;;;;;;1.80;0.90;;;8.10;99.90;;;;;;2087496;28;20360;-68
2023/10/29 04:29:35;;;;;;;1.90;0.93;;;8.20;99.90;;;;;;2089369;28;20234;-68
2023/10/29 04:30:36;;;;;;;1.40;0.97;;;8.20;99.90;;;;;;2091533;28;20321;-68
2023/10/29 04:31:37;;;;;;;2.50;1.20;;;8.20;99.90;;;;;;2090286;28;20740;-68
2023/10/29 04:32:37;;;;;;;3.10;0.90;;;8.10;99.90;;;;;;2093703;28;20242;-68
2023/10/29 04:33:38;;;;;;;1.60;1.10;;;8.00;99.90;;;;;;2086167;28;20228;-68
2023/10/29 04:34:38;;;;;;;1.87;1.00;;;7.90;99.90;;;;;;2084469;28;20295;-68
2023/10/29 04:35:39;;;;;;;1.77;1.00;;;7.80;99.90;;;;;;2084808;28;20234;-68
2023/10/29 04:36:42;;;;;;;2.77;1.30;;;7.80;99.90;;;;;;2093254;28;20276;-68
2023/10/29 04:37:42;;;;;;;1.98;1.17;;;7.80;99.90;;;;;;2092195;28;20728;-68
2023/10/29 04:38:43;;;;;;;3.97;1.03;;;7.70;99.90;;;;;;2094990;28;20234;-68
2023/10/29 04:39:44;;;;;;;1.00;0.90;;;7.80;99.90;;;;;;2099860;28;20829;-68
2023/10/29 04:40:45;;;;;;;3.03;1.17;;;7.80;99.90;;;;;;2090444;28;20313;-68
2023/10/29 04:41:48;;;;;;;1.60;0.95;;;7.80;99.90;;;;;;2090328;28;20227;-68
2023/10/29 04:42:49;;;;;;;2.78;1.00;;;7.80;99.90;;;;;;2089862;28;20230;-69
2023/10/29 04:43:50;;;;;;;2.70;1.37;;;7.90;99.90;;;;;;2092382;28;20253;-68
2023/10/29 04:44:50;;;;;;;2.80;1.00;;;7.80;99.90;;;;;;2086184;28;20220;-68
2023/10/29 04:45:51;;;;;;;2.03;1.20;;;7.90;99.90;;;;;;2092387;28;20219;-68
2023/10/29 04:46:51;;;;;;;2.43;0.90;;;7.80;99.90;;;;;;2091426;28;20225;-68
2023/10/29 04:47:52;;;;;;;2.23;0.90;;;7.90;99.90;;;;;;2090684;28;20704;-69
2023/10/29 04:48:52;;;;;;;2.23;1.10;;;7.90;99.90;;;;;;2093175;28;20220;-68
2023/10/29 04:49:53;;;;;;;1.13;1.03;;;8.00;99.90;;;;;;2087334;28;20220;-68
2023/10/29 04:50:54;;;;;;;1.13;0.90;;;8.10;99.90;;;;;;2090131;28;20267;-68
2023/10/29 04:51:54;;;;;;;1.50;1.23;;;8.20;99.90;;;;;;2089584;28;20655;-68
2023/10/29 04:52:55;;;;;;;1.50;1.10;;;8.30;99.90;;;;;;2090225;28;20252;-68
2023/10/29 04:53:56;;;;;;;1.50;1.00;;;8.30;99.90;;;;;;2090052;28;20308;-69
2023/10/29 04:54:56;;;;;;;1.33;1.00;;;8.40;99.90;;;;;;2088781;28;20231;-69
2023/10/29 04:55:57;;;;;;;2.43;1.30;;;8.30;99.90;;;;;;2088361;28;20239;-68
2023/10/29 04:56:57;;;;;;;3.20;1.00;;;8.20;99.90;;;;;;2092980;28;20806;-69
2023/10/29 04:57:58;;;;;;;1.30;1.00;;;8.20;99.90;;;;;;2093554;28;20227;-68
2023/10/29 04:58:59;;;;;;;1.37;1.07;;;8.10;99.90;;;;;;2091475;28;20313;-69
2023/10/29 05:00:00;;;;;;;2.80;0.90;;;8.10;99.90;;;;;;2089705;28;20700;-68
2023/10/29 05:01:01;;;;;;;1.17;0.90;;;8.10;99.90;;;;;;2088154;28;20236;-69
2023/10/29 05:02:01;;;;;;;2.00;1.27;;;8.20;99.90;;;;;;2097287;28;20806;-70
2023/10/29 05:03:02;;;;;;;1.97;0.90;;;8.10;99.90;;;;;;2090878;28;20188;-69
2023/10/29 05:04:03;;;;;;;1.33;0.90;;;8.10;99.90;;;;;;2092690;28;20264;-68
2023/10/29 05:05:05;;;;;;;1.53;1.07;;;8.00;99.90;;;;;;2096882;28;20662;-69
2023/10/29 05:06:06;;;;;;;1.80;0.93;;;7.90;99.90;;;;;;2092018;28;20187;-69
2023/10/29 05:07:08;;;;;;;1.90;1.00;;;7.80;99.90;;;;;;2089424;28;20187;-69
2023/10/29 05:08:08;;;;;;;2.67;1.30;;;7.70;99.90;;;;;;2089665;28;20622;-69
2023/10/29 05:09:09;;;;;;;1.70;1.20;;;7.80;99.90;;;;;;2089430;28;20207;-69
2023/10/29 05:10:10;;;;;;;2.27;1.10;;;7.70;99.90;;;;;;2095022;28;20256;-69
2023/10/29 05:11:10;;;;;;;3.00;1.20;;;7.70;99.90;;;;;;2092343;28;20191;-69
2023/10/29 05:12:11;;;;;;;1.47;1.20;;;7.80;99.90;;;;;;2091983;28;20196;-69
2023/10/29 05:13:12;;;;;;;1.80;1.20;;;7.70;99.90;;;;;;2087592;28;20190;-69
2023/10/29 05:14:13;;;;;;;1.40;0.98;;;7.70;99.90;;;;;;2089490;28;20230;-69
2023/10/29 05:15:13;;;;;;;1.30;1.10;;;7.70;99.90;;;;;;2090982;28;20195;-69
2023/10/29 05:16:14;;;;;;;2.20;1.20;;;7.80;99.90;;;;;;2088454;28;20210;-69
2023/10/29 05:17:15;;;;;;;1.27;0.98;;;7.80;99.90;;;;;;2088681;28;20662;-69
2023/10/29 05:18:16;;;;;;;2.00;1.07;;;7.80;99.90;;;;;;2088639;28;20211;-69
2023/10/29 05:19:18;;;;;;;1.67;1.03;;;7.80;99.90;;;;;;2089363;28;20227;-69
2023/10/29 05:20:19;;;;;;;3.22;1.20;;;7.90;99.90;;;;;;2092261;28;20212;-69